sensor_id;sensor_type;location;lat;lon;timestamp;pressure;altitude;pressure_sealevel;temperature;humidity
19594;BME280;9944;48.240;16.478;2022-11-15T00:02:01;100075.63;;;6.29;89.70
19594;BME280;9944;48.240;16.478;2022-11-15T00:06:25;100067.78;;;6.31;89.91
19594;BME280;9944;48.240;16.478;2022-11-15T00:10:55;100066.09;;;6.32;89.82
19594;BME280;9944;48.240;16.478;2022-11-15T00:15:16;100066.09;;;6.32;89.85
19594;BME280;9944;48.240;16.478;2022-11-15T00:19:38;100059.97;;;6.33;89.87
19594;BME280;9944;48.240;16.478;2022-11-15T00:23:59;100054.81;;;6.37;90.10
19594;BME280;9944;48.240;16.478;2022-11-15T00:28:23;100045.19;;;6.38;90.23
19594;BME280;9944;48.240;16.478;2022-11-15T00:32:45;100037.34;;;6.38;90.08
19594;BME280;9944;48.240;16.478;2022-11-15T00:37:06;100036.50;;;6.39;89.92
19594;BME280;9944;48.240;16.478;2022-11-15T00:41:28;100033.91;;;6.40;90.19
19594;BME280;9944;48.240;16.478;2022-11-15T00:45:51;100036.38;;;6.33;89.75
19594;BME280;9944;48.240;16.478;2022-11-15T00:50:13;100030.22;;;6.30;90.08
19594;BME280;9944;48.240;16.478;2022-11-15T00:54:35;100030.19;;;6.29;89.69
19594;BME280;9944;48.240;16.478;2022-11-15T00:58:57;100018.78;;;6.25;90.04
19594;BME280;9944;48.240;16.478;2022-11-15T01:03:19;100020.56;;;6.29;90.26
19594;BME280;9944;48.240;16.478;2022-11-15T01:07:41;100015.38;;;6.33;90.50
19594;BME280;9944;48.240;16.478;2022-11-15T01:12:03;100002.25;;;6.31;90.43
19594;BME280;9944;48.240;16.478;2022-11-15T01:16:24;100009.25;;;6.30;90.61
19594;BME280;9944;48.240;16.478;2022-11-15T01:20:47;99996.97;;;6.29;90.31
19594;BME280;9944;48.240;16.478;2022-11-15T01:25:09;100005.59;;;6.22;90.27
19594;BME280;9944;48.240;16.478;2022-11-15T01:29:31;100003.91;;;6.26;90.18
19594;BME280;9944;48.240;16.478;2022-11-15T01:33:52;99993.41;;;6.24;90.32
19594;BME280;9944;48.240;16.478;2022-11-15T01:38:16;99984.66;;;6.24;90.64
19594;BME280;9944;48.240;16.478;2022-11-15T01:42:37;99992.50;;;6.22;90.54
19594;BME280;9944;48.240;16.478;2022-11-15T01:47:01;99993.41;;;6.24;90.77
19594;BME280;9944;48.240;16.478;2022-11-15T01:51:25;99993.41;;;6.23;90.73
19594;BME280;9944;48.240;16.478;2022-11-15T01:55:49;99989.91;;;6.24;90.95
19594;BME280;9944;48.240;16.478;2022-11-15T02:00:13;99987.31;;;6.25;90.83
19594;BME280;9944;48.240;16.478;2022-11-15T02:04:37;99987.28;;;6.24;90.85
19594;BME280;9944;48.240;16.478;2022-11-15T02:09:01;99981.09;;;6.20;90.70
19594;BME280;9944;48.240;16.478;2022-11-15T02:13:24;99974.09;;;6.19;90.67
19594;BME280;9944;48.240;16.478;2022-11-15T02:18:03;99994.28;;;6.23;91.21
19594;BME280;9944;48.240;16.478;2022-11-15T02:22:36;99996.03;;;6.23;91.04
19594;BME280;9944;48.240;16.478;2022-11-15T02:27:20;99982.03;;;6.24;91.17
19594;BME280;9944;48.240;16.478;2022-11-15T02:31:54;99979.44;;;6.25;90.95
19594;BME280;9944;48.240;16.478;2022-11-15T02:36:28;99979.47;;;6.27;91.02
19594;BME280;9944;48.240;16.478;2022-11-15T02:40:55;99989.06;;;6.25;91.07
19594;BME280;9944;48.240;16.478;2022-11-15T02:45:22;99996.81;;;6.19;91.04
19594;BME280;9944;48.240;16.478;2022-11-15T02:49:48;99991.53;;;6.17;90.58
19594;BME280;9944;48.240;16.478;2022-11-15T02:54:14;99993.22;;;6.14;91.16
19594;BME280;9944;48.240;16.478;2022-11-15T02:58:50;99992.34;;;6.13;91.08
19594;BME280;9944;48.240;16.478;2022-11-15T03:03:25;99989.81;;;6.18;91.14
19594;BME280;9944;48.240;16.478;2022-11-15T03:07:55;99981.97;;;6.21;91.27
19594;BME280;9944;48.240;16.478;2022-11-15T03:12:27;99976.81;;;6.25;91.53
19594;BME280;9944;48.240;16.478;2022-11-15T03:16:51;99976.94;;;6.32;91.82
19594;BME280;9944;48.240;16.478;2022-11-15T03:21:19;99975.22;;;6.34;91.74
19594;BME280;9944;48.240;16.478;2022-11-15T03:25:45;99965.63;;;6.36;91.74
19594;BME280;9944;48.240;16.478;2022-11-15T03:30:10;99961.31;;;6.39;91.53
19594;BME280;9944;48.240;16.478;2022-11-15T03:34:36;99970.94;;;6.39;91.69
19594;BME280;9944;48.240;16.478;2022-11-15T03:39:02;99963.91;;;6.38;91.49
19594;BME280;9944;48.240;16.478;2022-11-15T03:43:34;99954.31;;;6.37;91.53
19594;BME280;9944;48.240;16.478;2022-11-15T03:47:59;99939.44;;;6.37;91.59
19594;BME280;9944;48.240;16.478;2022-11-15T03:52:23;99936.75;;;6.33;91.35
19594;BME280;9944;48.240;16.478;2022-11-15T03:56:45;99933.22;;;6.30;91.04
19594;BME280;9944;48.240;16.478;2022-11-15T04:01:08;99925.22;;;6.21;90.93
19594;BME280;9944;48.240;16.478;2022-11-15T04:05:30;99925.16;;;6.18;91.42
19594;BME280;9944;48.240;16.478;2022-11-15T04:09:52;99914.63;;;6.15;91.31
19594;BME280;9944;48.240;16.478;2022-11-15T04:14:26;99907.59;;;6.11;91.66
19594;BME280;9944;48.240;16.478;2022-11-15T04:18:49;99914.53;;;6.09;91.75
19594;BME280;9944;48.240;16.478;2022-11-15T04:23:30;99908.47;;;6.13;91.98
19594;BME280;9944;48.240;16.478;2022-11-15T04:28:21;99903.25;;;6.13;92.26
19594;BME280;9944;48.240;16.478;2022-11-15T04:32:43;99904.09;;;6.12;92.13
19594;BME280;9944;48.240;16.478;2022-11-15T04:37:06;99899.75;;;6.14;92.27
19594;BME280;9944;48.240;16.478;2022-11-15T04:41:33;99905.03;;;6.17;92.70
19594;BME280;9944;48.240;16.478;2022-11-15T04:45:55;99903.34;;;6.21;92.52
19594;BME280;9944;48.240;16.478;2022-11-15T04:50:17;99901.69;;;6.26;92.69
19594;BME280;9944;48.240;16.478;2022-11-15T04:54:40;99892.03;;;6.22;92.20
19594;BME280;9944;48.240;16.478;2022-11-15T04:59:03;99891.09;;;6.18;92.11
19594;BME280;9944;48.240;16.478;2022-11-15T05:03:24;99884.97;;;6.18;92.04
19594;BME280;9944;48.240;16.478;2022-11-15T05:08:03;99884.06;;;6.17;92.04
19594;BME280;9944;48.240;16.478;2022-11-15T05:12:27;99885.78;;;6.15;91.93
19594;BME280;9944;48.240;16.478;2022-11-15T05:16:49;99883.13;;;6.12;92.22
19594;BME280;9944;48.240;16.478;2022-11-15T05:21:14;99880.47;;;6.09;91.66
19594;BME280;9944;48.240;16.478;2022-11-15T05:25:36;99876.91;;;6.04;91.62
19594;BME280;9944;48.240;16.478;2022-11-15T05:29:59;99878.63;;;6.05;91.79
19594;BME280;9944;48.240;16.478;2022-11-15T05:34:21;99870.81;;;6.06;92.05
19594;BME280;9944;48.240;16.478;2022-11-15T05:38:45;99871.66;;;6.05;92.07
19594;BME280;9944;48.240;16.478;2022-11-15T05:43:07;99873.47;;;6.08;91.98
19594;BME280;9944;48.240;16.478;2022-11-15T05:47:31;99869.94;;;6.06;91.86
19594;BME280;9944;48.240;16.478;2022-11-15T05:51:54;99865.59;;;6.08;92.07
19594;BME280;9944;48.240;16.478;2022-11-15T05:56:17;99866.53;;;6.11;92.27
19594;BME280;9944;48.240;16.478;2022-11-15T06:00:39;99870.88;;;6.11;92.01
19594;BME280;9944;48.240;16.478;2022-11-15T06:05:03;99867.34;;;6.07;91.69
19594;BME280;9944;48.240;16.478;2022-11-15T06:09:25;99853.31;;;6.04;91.69
19594;BME280;9944;48.240;16.478;2022-11-15T06:13:47;99858.53;;;6.02;91.78
19594;BME280;9944;48.240;16.478;2022-11-15T06:18:09;99863.72;;;5.99;91.48
19594;BME280;9944;48.240;16.478;2022-11-15T06:22:32;99876.72;;;5.95;91.68
19594;BME280;9944;48.240;16.478;2022-11-15T06:26:53;99881.91;;;5.91;91.69
19594;BME280;9944;48.240;16.478;2022-11-15T06:31:16;99869.63;;;5.87;91.60
19594;BME280;9944;48.240;16.478;2022-11-15T06:35:38;99867.91;;;5.89;91.91
19594;BME280;9944;48.240;16.478;2022-11-15T06:40:01;99879.34;;;5.95;92.31
19594;BME280;9944;48.240;16.478;2022-11-15T06:44:22;99875.00;;;5.97;92.52
19594;BME280;9944;48.240;16.478;2022-11-15T06:48:44;99877.59;;;5.94;92.18
19594;BME280;9944;48.240;16.478;2022-11-15T06:53:05;99887.22;;;5.95;92.28
19594;BME280;9944;48.240;16.478;2022-11-15T06:57:28;99892.47;;;5.96;92.47
19594;BME280;9944;48.240;16.478;2022-11-15T07:01:50;99882.00;;;5.96;92.49
19594;BME280;9944;48.240;16.478;2022-11-15T07:06:12;99880.25;;;5.97;92.46
19594;BME280;9944;48.240;16.478;2022-11-15T07:10:34;99878.56;;;5.99;92.61
19594;BME280;9944;48.240;16.478;2022-11-15T07:14:57;99886.44;;;6.00;92.59
19594;BME280;9944;48.240;16.478;2022-11-15T07:19:19;99889.19;;;6.08;93.00
19594;BME280;9944;48.240;16.478;2022-11-15T07:23:40;99874.38;;;6.11;92.72
19594;BME280;9944;48.240;16.478;2022-11-15T07:28:03;99869.09;;;6.08;92.71
19594;BME280;9944;48.240;16.478;2022-11-15T07:32:26;99873.47;;;6.09;92.69
19594;BME280;9944;48.240;16.478;2022-11-15T07:36:48;99869.97;;;6.07;92.38
19594;BME280;9944;48.240;16.478;2022-11-15T07:41:10;99859.44;;;6.06;92.35
19594;BME280;9944;48.240;16.478;2022-11-15T07:45:33;99851.47;;;6.00;92.27
19594;BME280;9944;48.240;16.478;2022-11-15T07:49:56;99854.16;;;6.03;92.54
19594;BME280;9944;48.240;16.478;2022-11-15T07:54:17;99864.69;;;6.06;93.02
19594;BME280;9944;48.240;16.478;2022-11-15T07:58:39;99861.19;;;6.07;92.72
19594;BME280;9944;48.240;16.478;2022-11-15T08:03:02;99853.31;;;6.04;92.60
19594;BME280;9944;48.240;16.478;2022-11-15T08:07:28;99852.38;;;6.02;92.73
19594;BME280;9944;48.240;16.478;2022-11-15T08:11:50;99848.88;;;6.01;92.83
19594;BME280;9944;48.240;16.478;2022-11-15T08:16:12;99847.25;;;6.08;93.09
19594;BME280;9944;48.240;16.478;2022-11-15T08:20:34;99854.25;;;6.10;93.36
19594;BME280;9944;48.240;16.478;2022-11-15T08:24:58;99849.03;;;6.10;93.21
19594;BME280;9944;48.240;16.478;2022-11-15T08:29:19;99845.53;;;6.10;93.35
19594;BME280;9944;48.240;16.478;2022-11-15T08:33:41;99843.84;;;6.15;93.57
19594;BME280;9944;48.240;16.478;2022-11-15T08:38:02;99835.97;;;6.14;93.31
19594;BME280;9944;48.240;16.478;2022-11-15T08:42:25;99840.34;;;6.13;93.38
19594;BME280;9944;48.240;16.478;2022-11-15T08:46:46;99834.22;;;6.14;93.32
19594;BME280;9944;48.240;16.478;2022-11-15T08:51:08;99845.59;;;6.15;93.53
19594;BME280;9944;48.240;16.478;2022-11-15T08:55:30;99836.91;;;6.17;93.38
19594;BME280;9944;48.240;16.478;2022-11-15T08:59:53;99835.94;;;6.12;93.17
19594;BME280;9944;48.240;16.478;2022-11-15T09:04:15;99836.81;;;6.11;93.46
19594;BME280;9944;48.240;16.478;2022-11-15T09:08:36;99835.97;;;6.14;93.74
19594;BME280;9944;48.240;16.478;2022-11-15T09:13:10;99838.66;;;6.17;94.24
19594;BME280;9944;48.240;16.478;2022-11-15T09:17:34;99831.69;;;6.20;94.20
19594;BME280;9944;48.240;16.478;2022-11-15T09:21:55;99836.94;;;6.20;93.85
19594;BME280;9944;48.240;16.478;2022-11-15T09:26:17;99826.50;;;6.23;94.11
19594;BME280;9944;48.240;16.478;2022-11-15T09:30:39;99819.53;;;6.25;94.26
19594;BME280;9944;48.240;16.478;2022-11-15T09:35:02;99815.16;;;6.26;94.29
19594;BME280;9944;48.240;16.478;2022-11-15T09:39:24;99809.94;;;6.26;93.89
19594;BME280;9944;48.240;16.478;2022-11-15T09:43:53;99793.38;;;6.28;94.38
19594;BME280;9944;48.240;16.478;2022-11-15T09:48:31;99788.13;;;6.28;94.05
19594;BME280;9944;48.240;16.478;2022-11-15T09:53:00;99780.28;;;6.28;94.04
19594;BME280;9944;48.240;16.478;2022-11-15T09:57:05;99786.41;;;6.30;94.16
19594;BME280;9944;48.240;16.478;2022-11-15T10:01:22;99765.50;;;6.34;94.32
19594;BME280;9944;48.240;16.478;2022-11-15T10:05:29;99769.03;;;6.39;94.68
19594;BME280;9944;48.240;16.478;2022-11-15T10:09:39;99765.63;;;6.43;94.59
19594;BME280;9944;48.240;16.478;2022-11-15T10:13:47;99765.63;;;6.43;94.52
19594;BME280;9944;48.240;16.478;2022-11-15T10:18:07;99754.28;;;6.44;94.43
19594;BME280;9944;48.240;16.478;2022-11-15T10:22:24;99751.69;;;6.47;94.23
19594;BME280;9944;48.240;16.478;2022-11-15T10:26:29;99735.94;;;6.47;94.62
19594;BME280;9944;48.240;16.478;2022-11-15T10:30:34;99732.53;;;6.51;94.35
19594;BME280;9944;48.240;16.478;2022-11-15T10:34:38;99717.63;;;6.50;94.01
19594;BME280;9944;48.240;16.478;2022-11-15T10:38:55;99721.19;;;6.55;94.41
19594;BME280;9944;48.240;16.478;2022-11-15T10:43:12;99715.13;;;6.59;94.98
19594;BME280;9944;48.240;16.478;2022-11-15T10:47:24;99703.81;;;6.63;94.47
19594;BME280;9944;48.240;16.478;2022-11-15T10:51:29;99699.47;;;6.67;94.81
19594;BME280;9944;48.240;16.478;2022-11-15T10:55:33;99700.38;;;6.71;94.75
19594;BME280;9944;48.240;16.478;2022-11-15T10:59:42;99695.19;;;6.75;94.96
19594;BME280;9944;48.240;16.478;2022-11-15T11:03:59;99683.00;;;6.82;94.81
19594;BME280;9944;48.240;16.478;2022-11-15T11:08:21;99679.59;;;6.91;94.89
19594;BME280;9944;48.240;16.478;2022-11-15T11:12:31;99667.31;;;6.90;94.67
19594;BME280;9944;48.240;16.478;2022-11-15T11:16:44;99670.88;;;6.95;94.66
19594;BME280;9944;48.240;16.478;2022-11-15T11:20:56;99665.69;;;7.01;94.58
19594;BME280;9944;48.240;16.478;2022-11-15T11:25:16;99656.09;;;7.08;94.31
19594;BME280;9944;48.240;16.478;2022-11-15T11:29:33;99653.47;;;7.08;94.04
19594;BME280;9944;48.240;16.478;2022-11-15T11:33:49;99648.22;;;7.08;93.88
19594;BME280;9944;48.240;16.478;2022-11-15T11:37:59;99635.09;;;7.08;93.36
19594;BME280;9944;48.240;16.478;2022-11-15T11:42:13;99623.69;;;7.04;93.26
19594;BME280;9944;48.240;16.478;2022-11-15T11:46:35;99621.97;;;7.03;93.37
19594;BME280;9944;48.240;16.478;2022-11-15T11:50:44;99626.38;;;7.09;93.54
19594;BME280;9944;48.240;16.478;2022-11-15T11:55:02;99611.47;;;7.08;93.67
19594;BME280;9944;48.240;16.478;2022-11-15T11:59:16;99592.25;;;7.10;93.75
19594;BME280;9944;48.240;16.478;2022-11-15T12:03:25;99598.34;;;7.08;93.46
19594;BME280;9944;48.240;16.478;2022-11-15T12:07:34;99594.88;;;7.09;93.48
19594;BME280;9944;48.240;16.478;2022-11-15T12:11:52;99591.38;;;7.07;93.64
19594;BME280;9944;48.240;16.478;2022-11-15T12:16:00;99586.13;;;7.07;93.44
19594;BME280;9944;48.240;16.478;2022-11-15T12:20:16;99576.53;;;7.12;93.80
19594;BME280;9944;48.240;16.478;2022-11-15T12:24:25;99563.41;;;7.15;93.75
19594;BME280;9944;48.240;16.478;2022-11-15T12:28:34;99561.69;;;7.17;93.67
19594;BME280;9944;48.240;16.478;2022-11-15T12:33:01;99552.94;;;7.21;93.98
19594;BME280;9944;48.240;16.478;2022-11-15T12:37:46;99545.97;;;7.26;94.29
19594;BME280;9944;48.240;16.478;2022-11-15T12:42:39;99541.63;;;7.31;93.85
19594;BME280;9944;48.240;16.478;2022-11-15T12:47:01;99531.13;;;7.30;93.83
19594;BME280;9944;48.240;16.478;2022-11-15T12:51:05;99527.66;;;7.32;93.90
19594;BME280;9944;48.240;16.478;2022-11-15T12:55:29;99528.53;;;7.34;93.85
19594;BME280;9944;48.240;16.478;2022-11-15T12:59:50;99525.00;;;7.35;93.62
19594;BME280;9944;48.240;16.478;2022-11-15T13:04:21;99512.78;;;7.34;93.77
19594;BME280;9944;48.240;16.478;2022-11-15T13:08:39;99504.91;;;7.34;93.63
19594;BME280;9944;48.240;16.478;2022-11-15T13:12:52;99502.25;;;7.33;93.59
19594;BME280;9944;48.240;16.478;2022-11-15T13:16:58;99483.88;;;7.33;93.64
19594;BME280;9944;48.240;16.478;2022-11-15T13:21:04;99484.78;;;7.36;93.91
19594;BME280;9944;48.240;16.478;2022-11-15T13:25:58;99481.25;;;7.39;93.97
19594;BME280;9944;48.240;16.478;2022-11-15T13:30:05;99469.91;;;7.38;94.00
19594;BME280;9944;48.240;16.478;2022-11-15T13:34:20;99476.03;;;7.40;93.88
19594;BME280;9944;48.240;16.478;2022-11-15T13:38:54;99463.78;;;7.46;94.01
19594;BME280;9944;48.240;16.478;2022-11-15T13:42:59;99458.56;;;7.49;93.93
19594;BME280;9944;48.240;16.478;2022-11-15T13:47:04;99456.81;;;7.51;94.19
19594;BME280;9944;48.240;16.478;2022-11-15T13:51:15;99460.31;;;7.50;93.95
19594;BME280;9944;48.240;16.478;2022-11-15T13:55:22;99455.94;;;7.53;93.87
19594;BME280;9944;48.240;16.478;2022-11-15T13:59:28;99447.19;;;7.59;94.19
19594;BME280;9944;48.240;16.478;2022-11-15T14:03:33;99442.84;;;7.63;94.08
19594;BME280;9944;48.240;16.478;2022-11-15T14:07:38;99431.47;;;7.64;94.23
19594;BME280;9944;48.240;16.478;2022-11-15T14:11:52;99429.69;;;7.63;93.51
19594;BME280;9944;48.240;16.478;2022-11-15T14:16:14;99420.97;;;7.64;93.63
19594;BME280;9944;48.240;16.478;2022-11-15T14:20:30;99420.06;;;7.66;93.87
19594;BME280;9944;48.240;16.478;2022-11-15T14:24:36;99413.94;;;7.70;93.91
19594;BME280;9944;48.240;16.478;2022-11-15T14:28:39;99420.09;;;7.71;93.78
19594;BME280;9944;48.240;16.478;2022-11-15T14:32:44;99424.47;;;7.73;94.10
19594;BME280;9944;48.240;16.478;2022-11-15T14:36:48;99411.34;;;7.76;93.77
19594;BME280;9944;48.240;16.478;2022-11-15T14:40:53;99422.72;;;7.74;93.43
19594;BME280;9944;48.240;16.478;2022-11-15T14:44:57;99412.22;;;7.71;93.58
19594;BME280;9944;48.240;16.478;2022-11-15T14:49:00;99413.09;;;7.74;93.73
19594;BME280;9944;48.240;16.478;2022-11-15T14:53:04;99406.06;;;7.76;93.64
19594;BME280;9944;48.240;16.478;2022-11-15T14:57:09;99405.22;;;7.76;93.84
19594;BME280;9944;48.240;16.478;2022-11-15T15:01:21;99402.56;;;7.80;93.70
19594;BME280;9944;48.240;16.478;2022-11-15T15:05:30;99403.44;;;7.84;93.85
19594;BME280;9944;48.240;16.478;2022-11-15T15:09:34;99396.47;;;7.85;93.41
19594;BME280;9944;48.240;16.478;2022-11-15T15:13:38;99397.31;;;7.84;93.61
19594;BME280;9944;48.240;16.478;2022-11-15T15:17:41;99399.94;;;7.84;93.39
19594;BME280;9944;48.240;16.478;2022-11-15T15:21:44;99401.69;;;7.80;92.90
19594;BME280;9944;48.240;16.478;2022-11-15T15:25:48;99394.69;;;7.80;93.01
19594;BME280;9944;48.240;16.478;2022-11-15T15:29:52;99395.56;;;7.79;93.21
19594;BME280;9944;48.240;16.478;2022-11-15T15:33:55;99394.69;;;7.79;93.12
19594;BME280;9944;48.240;16.478;2022-11-15T15:37:58;99396.44;;;7.80;93.41
19594;BME280;9944;48.240;16.478;2022-11-15T15:42:01;99379.81;;;7.86;93.41
19594;BME280;9944;48.240;16.478;2022-11-15T15:46:09;99377.19;;;7.90;93.21
19594;BME280;9944;48.240;16.478;2022-11-15T15:50:20;99371.91;;;7.89;92.97
19594;BME280;9944;48.240;16.478;2022-11-15T15:54:23;99373.69;;;7.88;93.05
19594;BME280;9944;48.240;16.478;2022-11-15T15:58:26;99365.78;;;7.87;93.22
19594;BME280;9944;48.240;16.478;2022-11-15T16:02:31;99360.53;;;7.87;93.31
19594;BME280;9944;48.240;16.478;2022-11-15T16:06:42;99346.53;;;7.82;92.76
19594;BME280;9944;48.240;16.478;2022-11-15T16:10:52;99348.28;;;7.79;92.86
19594;BME280;9944;48.240;16.478;2022-11-15T16:14:55;99357.03;;;7.82;92.86
19594;BME280;9944;48.240;16.478;2022-11-15T16:18:59;99359.66;;;7.82;93.08
19594;BME280;9944;48.240;16.478;2022-11-15T16:23:04;99355.28;;;7.84;93.12
19594;BME280;9944;48.240;16.478;2022-11-15T16:27:12;99355.28;;;7.87;93.20
19594;BME280;9944;48.240;16.478;2022-11-15T16:31:16;99352.66;;;7.88;93.22
19594;BME280;9944;48.240;16.478;2022-11-15T16:35:24;99351.78;;;7.88;93.15
19594;BME280;9944;48.240;16.478;2022-11-15T16:39:27;99353.53;;;7.89;92.61
19594;BME280;9944;48.240;16.478;2022-11-15T16:43:31;99348.28;;;7.92;92.96
19594;BME280;9944;48.240;16.478;2022-11-15T16:47:34;99343.03;;;7.92;92.50
19594;BME280;9944;48.240;16.478;2022-11-15T16:51:38;99345.66;;;7.93;92.23
19594;BME280;9944;48.240;16.478;2022-11-15T16:55:42;99352.66;;;7.96;92.63
19594;BME280;9944;48.240;16.478;2022-11-15T16:59:45;99344.75;;;7.99;92.19
19594;BME280;9944;48.240;16.478;2022-11-15T17:03:49;99346.50;;;8.03;92.46
19594;BME280;9944;48.240;16.478;2022-11-15T17:07:53;99347.38;;;8.07;92.22
19594;BME280;9944;48.240;16.478;2022-11-15T17:11:56;99350.00;;;8.08;92.24
19594;BME280;9944;48.240;16.478;2022-11-15T17:16:04;99340.38;;;8.10;92.10
19594;BME280;9944;48.240;16.478;2022-11-15T17:20:13;99344.75;;;8.14;92.10
19594;BME280;9944;48.240;16.478;2022-11-15T17:24:18;99337.72;;;8.16;91.90
19594;BME280;9944;48.240;16.478;2022-11-15T17:28:22;99334.25;;;8.17;91.81
19594;BME280;9944;48.240;16.478;2022-11-15T17:32:25;99320.19;;;8.15;91.50
19594;BME280;9944;48.240;16.478;2022-11-15T17:36:28;99326.34;;;8.13;91.35
19594;BME280;9944;48.240;16.478;2022-11-15T17:40:33;99328.09;;;8.15;91.69
19594;BME280;9944;48.240;16.478;2022-11-15T17:44:36;99322.84;;;8.14;91.53
19594;BME280;9944;48.240;16.478;2022-11-15T17:48:39;99319.34;;;8.15;91.54
19594;BME280;9944;48.240;16.478;2022-11-15T17:52:43;99308.81;;;8.18;91.38
19594;BME280;9944;48.240;16.478;2022-11-15T17:56:48;99289.53;;;8.14;91.25
19594;BME280;9944;48.240;16.478;2022-11-15T18:00:51;99286.91;;;8.11;90.80
19594;BME280;9944;48.240;16.478;2022-11-15T18:04:54;99286.91;;;8.08;90.70
19594;BME280;9944;48.240;16.478;2022-11-15T18:08:58;99275.53;;;8.09;91.19
19594;BME280;9944;48.240;16.478;2022-11-15T18:13:03;99279.03;;;8.10;91.13
19594;BME280;9944;48.240;16.478;2022-11-15T18:17:06;99270.25;;;8.18;91.29
19594;BME280;9944;48.240;16.478;2022-11-15T18:21:11;99263.25;;;8.16;91.17
19594;BME280;9944;48.240;16.478;2022-11-15T18:25:15;99258.88;;;8.16;90.90
19594;BME280;9944;48.240;16.478;2022-11-15T18:29:20;99258.00;;;8.16;91.04
19594;BME280;9944;48.240;16.478;2022-11-15T18:33:25;99258.00;;;8.13;91.05
19594;BME280;9944;48.240;16.478;2022-11-15T18:37:28;99254.50;;;8.14;90.96
19594;BME280;9944;48.240;16.478;2022-11-15T18:41:32;99250.13;;;8.11;91.09
19594;BME280;9944;48.240;16.478;2022-11-15T18:45:38;99238.72;;;8.11;90.97
19594;BME280;9944;48.240;16.478;2022-11-15T18:49:41;99244.00;;;8.12;91.12
19594;BME280;9944;48.240;16.478;2022-11-15T18:53:44;99250.97;;;8.12;90.70
19594;BME280;9944;48.240;16.478;2022-11-15T18:57:48;99243.13;;;8.10;90.89
19594;BME280;9944;48.240;16.478;2022-11-15T19:01:53;99240.47;;;8.12;90.93
19594;BME280;9944;48.240;16.478;2022-11-15T19:06:01;99241.34;;;8.12;90.75
19594;BME280;9944;48.240;16.478;2022-11-15T19:10:05;99241.31;;;8.15;90.57
19594;BME280;9944;48.240;16.478;2022-11-15T19:14:10;99246.59;;;8.15;90.40
19594;BME280;9944;48.240;16.478;2022-11-15T19:18:15;99234.34;;;8.14;89.88
19594;BME280;9944;48.240;16.478;2022-11-15T19:22:21;99226.44;;;8.10;89.57
19594;BME280;9944;48.240;16.478;2022-11-15T19:26:32;99233.47;;;8.11;89.95
19594;BME280;9944;48.240;16.478;2022-11-15T19:30:38;99233.47;;;8.11;89.48
19594;BME280;9944;48.240;16.478;2022-11-15T19:34:42;99221.19;;;8.14;89.62
19594;BME280;9944;48.240;16.478;2022-11-15T19:38:45;99227.31;;;8.16;89.48
19594;BME280;9944;48.240;16.478;2022-11-15T19:42:49;99229.06;;;8.17;89.46
19594;BME280;9944;48.240;16.478;2022-11-15T19:46:52;99233.44;;;8.20;89.41
19594;BME280;9944;48.240;16.478;2022-11-15T19:50:59;99235.19;;;8.23;89.24
19594;BME280;9944;48.240;16.478;2022-11-15T19:55:02;99236.06;;;8.25;89.17
19594;BME280;9944;48.240;16.478;2022-11-15T19:59:06;99233.44;;;8.25;88.90
19594;BME280;9944;48.240;16.478;2022-11-15T20:03:09;99216.75;;;8.26;88.83
19594;BME280;9944;48.240;16.478;2022-11-15T20:07:14;99222.91;;;8.26;88.66
19594;BME280;9944;48.240;16.478;2022-11-15T20:11:18;99213.25;;;8.27;88.45
19594;BME280;9944;48.240;16.478;2022-11-15T20:15:22;99207.13;;;8.25;88.45
19594;BME280;9944;48.240;16.478;2022-11-15T20:19:25;99208.00;;;8.27;88.76
19594;BME280;9944;48.240;16.478;2022-11-15T20:23:29;99200.09;;;8.28;88.36
19594;BME280;9944;48.240;16.478;2022-11-15T20:27:32;99184.34;;;8.25;87.89
19594;BME280;9944;48.240;16.478;2022-11-15T20:31:36;99188.75;;;8.18;88.01
19594;BME280;9944;48.240;16.478;2022-11-15T20:35:39;99182.63;;;8.16;87.48
19594;BME280;9944;48.240;16.478;2022-11-15T20:39:44;99166.00;;;8.10;87.74
19594;BME280;9944;48.240;16.478;2022-11-15T20:43:47;99171.28;;;8.05;87.99
19594;BME280;9944;48.240;16.478;2022-11-15T20:47:53;99159.88;;;8.05;88.31
19594;BME280;9944;48.240;16.478;2022-11-15T20:51:56;99162.50;;;8.03;88.32
19594;BME280;9944;48.240;16.478;2022-11-15T20:56:04;99161.66;;;8.03;89.03
19594;BME280;9944;48.240;16.478;2022-11-15T21:00:09;99150.25;;;8.02;89.40
19594;BME280;9944;48.240;16.478;2022-11-15T21:04:12;99155.53;;;8.02;89.49
19594;BME280;9944;48.240;16.478;2022-11-15T21:08:15;99164.28;;;8.04;89.89
19594;BME280;9944;48.240;16.478;2022-11-15T21:12:20;99166.03;;;8.05;89.91
19594;BME280;9944;48.240;16.478;2022-11-15T21:16:22;99153.75;;;8.04;89.99
19594;BME280;9944;48.240;16.478;2022-11-15T21:20:25;99164.25;;;8.07;90.25
19594;BME280;9944;48.240;16.478;2022-11-15T21:24:28;99164.25;;;8.07;90.67
19594;BME280;9944;48.240;16.478;2022-11-15T21:28:33;99154.63;;;8.06;90.48
19594;BME280;9944;48.240;16.478;2022-11-15T21:32:36;99156.38;;;8.04;90.42
19594;BME280;9944;48.240;16.478;2022-11-15T21:36:40;99164.28;;;8.03;90.49
19594;BME280;9944;48.240;16.478;2022-11-15T21:40:43;99159.91;;;8.00;90.92
19594;BME280;9944;48.240;16.478;2022-11-15T21:44:47;99152.91;;;7.99;90.70
19594;BME280;9944;48.240;16.478;2022-11-15T21:48:50;99147.66;;;7.97;90.93
19594;BME280;9944;48.240;16.478;2022-11-15T21:52:53;99143.25;;;7.98;90.96
19594;BME280;9944;48.240;16.478;2022-11-15T21:56:56;99138.03;;;7.95;91.24
19594;BME280;9944;48.240;16.478;2022-11-15T22:01:01;99137.13;;;7.96;91.21
19594;BME280;9944;48.240;16.478;2022-11-15T22:05:25;99133.63;;;7.97;91.42
19594;BME280;9944;48.240;16.478;2022-11-15T22:09:28;99131.00;;;7.97;91.54
19594;BME280;9944;48.240;16.478;2022-11-15T22:13:31;99118.75;;;7.96;91.67
19594;BME280;9944;48.240;16.478;2022-11-15T22:17:36;99120.50;;;7.95;91.56
19594;BME280;9944;48.240;16.478;2022-11-15T22:21:56;99113.47;;;7.93;91.19
19594;BME280;9944;48.240;16.478;2022-11-15T22:26:00;99108.28;;;7.88;91.53
19594;BME280;9944;48.240;16.478;2022-11-15T22:30:04;99099.53;;;7.88;91.73
19594;BME280;9944;48.240;16.478;2022-11-15T22:34:08;99099.53;;;7.88;92.08
19594;BME280;9944;48.240;16.478;2022-11-15T22:38:12;99102.13;;;7.89;91.84
19594;BME280;9944;48.240;16.478;2022-11-15T22:42:15;99097.75;;;7.90;91.88
19594;BME280;9944;48.240;16.478;2022-11-15T22:46:24;99086.34;;;7.91;92.25